Time;durP1;ratioP1;P1;durP2;ratioP2;P2;SDS_P1;SDS_P2;PMS_P1;PMS_P2;Temp;Humidity;BMP_temperature;BMP_pressure;BME280_temperature;BME280_humidity;BME280_pressure;Samples;Min_cycle;Max_cycle;Signal;HPM_P1;HPM_P2
2021/10/04 00:17:19;;;;;;;3.15;2.28;;;;;;;;;;4606881;27;19982;-65
2021/10/04 00:19:45;;;;;;;6.95;2.30;;;;;;;;;;4303576;33;20115;-66
2021/10/04 00:22:11;;;;;;;2.50;1.95;;;;;;;;;;4305143;33;20131;-66
2021/10/04 00:24:37;;;;;;;2.05;1.85;;;;;;;;;;4305176;33;20606;-66
2021/10/04 00:27:03;;;;;;;2.95;2.20;;;;;;;;;;4305354;33;20119;-66
2021/10/04 00:29:28;;;;;;;2.47;1.92;;;;;;;;;;4305089;33;20210;-66
2021/10/04 00:31:54;;;;;;;2.40;2.05;;;;;;;;;;4305123;33;20213;-66
2021/10/04 00:34:20;;;;;;;2.92;2.05;;;;;;;;;;4304944;33;20107;-65
2021/10/04 00:36:46;;;;;;;2.45;1.85;;;;;;;;;;4291552;33;20539;-66
2021/10/04 00:39:12;;;;;;;3.90;2.17;;;;;;;;;;4305005;33;20131;-66
2021/10/04 00:41:38;;;;;;;4.85;2.20;;;;;;;;;;4305016;33;20114;-66
2021/10/04 00:44:04;;;;;;;2.83;2.08;;;;;;;;;;4305116;33;20087;-66
2021/10/04 00:46:30;;;;;;;4.15;2.28;;;;;;;;;;4305061;33;20103;-66
2021/10/04 00:48:56;;;;;;;2.50;1.80;;;;;;;;;;4304979;33;20515;-66
2021/10/04 00:51:22;;;;;;;3.03;2.10;;;;;;;;;;4304890;33;20263;-65
2021/10/04 00:53:48;;;;;;;2.22;1.90;;;;;;;;;;4305049;33;20118;-66
2021/10/04 00:56:15;;;;;;;2.75;1.98;;;;;;;;;;4305002;33;20103;-66
2021/10/04 00:58:41;;;;;;;3.35;2.22;;;;;;;;;;4304811;33;20106;-66
2021/10/04 01:01:06;;;;;;;2.65;2.20;;;;;;;;;;4291408;33;20205;-66
2021/10/04 01:03:32;;;;;;;2.10;1.90;;;;;;;;;;4291605;33;20091;-66
2021/10/04 01:05:58;;;;;;;4.18;2.45;;;;;;;;;;4304692;33;20546;-65
2021/10/04 01:08:24;;;;;;;5.18;2.08;;;;;;;;;;4304457;33;20134;-65
2021/10/04 01:10:50;;;;;;;3.42;2.10;;;;;;;;;;4304594;33;20214;-65
2021/10/04 01:13:16;;;;;;;2.65;2.10;;;;;;;;;;4291225;33;20483;-65
2021/10/04 01:15:42;;;;;;;5.70;2.10;;;;;;;;;;4291120;33;20119;-66
2021/10/04 01:18:08;;;;;;;2.58;2.03;;;;;;;;;;4304192;33;20285;-65
2021/10/04 01:20:35;;;;;;;2.67;2.00;;;;;;;;;;4304642;33;20202;-65
2021/10/04 01:23:01;;;;;;;3.15;2.30;;;;;;;;;;4291346;33;20123;-65
2021/10/04 01:25:26;;;;;;;3.00;2.30;;;;;;;;;;4298764;33;20529;-65
2021/10/04 01:27:52;;;;;;;4.80;2.20;;;;;;;;;;4304406;33;20115;-65
2021/10/04 01:30:20;;;;;;;3.62;2.20;;;;;;;;;;4304498;33;20225;-66
2021/10/04 01:32:46;;;;;;;3.35;2.17;;;;;;;;;;4291321;33;20102;-65
2021/10/04 01:35:12;;;;;;;2.70;2.10;;;;;;;;;;4291027;33;20107;-65
2021/10/04 01:37:38;;;;;;;4.15;2.08;;;;;;;;;;4304380;33;20213;-67
2021/10/04 01:40:05;;;;;;;4.35;2.20;;;;;;;;;;4304383;33;20192;-67
2021/10/04 01:42:31;;;;;;;2.87;2.17;;;;;;;;;;4304332;33;20129;-67
2021/10/04 01:44:57;;;;;;;2.87;2.45;;;;;;;;;;4304441;33;20099;-67
2021/10/04 01:47:23;;;;;;;4.82;2.30;;;;;;;;;;4304224;33;20542;-67
2021/10/04 01:49:48;;;;;;;3.58;2.35;;;;;;;;;;4304275;33;20134;-66
2021/10/04 01:52:14;;;;;;;4.62;2.85;;;;;;;;;;4304359;33;20126;-65
2021/10/04 01:54:40;;;;;;;2.47;2.22;;;;;;;;;;4304621;33;20495;-65
2021/10/04 01:57:07;;;;;;;3.47;2.53;;;;;;;;;;4304223;33;20096;-65
2021/10/04 01:59:33;;;;;;;4.62;2.40;;;;;;;;;;4304312;33;20209;-66
2021/10/04 02:01:59;;;;;;;3.03;2.30;;;;;;;;;;4304159;33;20115;-65
2021/10/04 02:04:25;;;;;;;3.53;2.47;;;;;;;;;;4304113;33;20126;-68
2021/10/04 02:06:51;;;;;;;3.00;2.50;;;;;;;;;;4304178;33;20676;-65
2021/10/04 02:09:18;;;;;;;3.50;2.35;;;;;;;;;;4304117;33;20153;-66
2021/10/04 02:11:44;;;;;;;5.05;3.25;;;;;;;;;;4304115;33;20550;-67
2021/10/04 02:14:10;;;;;;;3.80;2.30;;;;;;;;;;4290960;33;20534;-65
2021/10/04 02:16:36;;;;;;;3.67;2.53;;;;;;;;;;4303778;33;20115;-64
2021/10/04 02:19:02;;;;;;;3.03;2.40;;;;;;;;;;4290472;33;20844;-65
2021/10/04 02:21:28;;;;;;;3.65;2.70;;;;;;;;;;4303239;33;20147;-65
2021/10/04 02:23:54;;;;;;;3.67;2.60;;;;;;;;;;4303926;33;20095;-65
2021/10/04 02:26:19;;;;;;;4.75;2.47;;;;;;;;;;4304114;33;20150;-65
2021/10/04 02:28:45;;;;;;;3.58;2.50;;;;;;;;;;4303882;33;20126;-64
2021/10/04 02:31:11;;;;;;;3.03;2.37;;;;;;;;;;4303982;33;20119;-67
2021/10/04 02:33:37;;;;;;;3.83;2.50;;;;;;;;;;4303802;33;20491;-67
2021/10/04 02:36:03;;;;;;;3.83;2.78;;;;;;;;;;4290330;33;20100;-65
2021/10/04 02:38:29;;;;;;;5.28;2.92;;;;;;;;;;4303899;33;20138;-66
2021/10/04 02:40:55;;;;;;;5.10;3.58;;;;;;;;;;4303897;33;20616;-66
2021/10/04 02:43:21;;;;;;;3.33;2.55;;;;;;;;;;4303763;33;20182;-66
2021/10/04 02:45:50;;;;;;;5.20;2.53;;;;;;;;;;4303755;33;20099;-69
2021/10/04 02:48:16;;;;;;;8.10;2.70;;;;;;;;;;4290447;33;20522;-66
2021/10/04 02:50:42;;;;;;;3.47;2.50;;;;;;;;;;4304015;33;20115;-64
2021/10/04 02:53:08;;;;;;;13.10;2.78;;;;;;;;;;4303543;33;20134;-64
2021/10/04 02:55:34;;;;;;;3.33;2.50;;;;;;;;;;4303693;33;20551;-63
2021/10/04 02:58:00;;;;;;;5.07;2.58;;;;;;;;;;4303467;33;20091;-65
2021/10/04 03:00:26;;;;;;;4.22;2.67;;;;;;;;;;4290335;33;20514;-65
2021/10/04 03:02:52;;;;;;;4.37;3.03;;;;;;;;;;4290156;33;20114;-66
2021/10/04 03:05:17;;;;;;;4.85;2.72;;;;;;;;;;4303647;33;20542;-66
2021/10/04 03:07:43;;;;;;;4.68;3.20;;;;;;;;;;4290118;33;20118;-64
2021/10/04 03:10:09;;;;;;;14.38;3.20;;;;;;;;;;4303716;33;20142;-66
2021/10/04 03:12:35;;;;;;;7.70;3.45;;;;;;;;;;4303577;33;20534;-64
2021/10/04 03:15:01;;;;;;;8.23;4.25;;;;;;;;;;4287461;33;20095;-69
2021/10/04 03:17:27;;;;;;;10.18;4.22;;;;;;;;;;4303421;33;20194;-62
2021/10/04 03:19:53;;;;;;;5.87;3.17;;;;;;;;;;4303366;33;20221;-64
2021/10/04 03:22:19;;;;;;;7.22;3.60;;;;;;;;;;4303494;33;20607;-64
2021/10/04 03:24:45;;;;;;;5.68;3.60;;;;;;;;;;4303514;33;20505;-64
2021/10/04 03:27:11;;;;;;;5.12;2.87;;;;;;;;;;4303273;33;20131;-63
2021/10/04 03:29:37;;;;;;;6.62;4.03;;;;;;;;;;4303634;33;20114;-64
2021/10/04 03:32:03;;;;;;;7.50;4.43;;;;;;;;;;4304299;33;20198;-64
2021/10/04 03:34:29;;;;;;;8.02;4.20;;;;;;;;;;4305440;33;20123;-63
2021/10/04 03:36:56;;;;;;;8.95;5.35;;;;;;;;;;4305362;33;20498;-63
2021/10/04 03:39:22;;;;;;;13.57;5.87;;;;;;;;;;4305515;33;20115;-64
2021/10/04 03:41:48;;;;;;;8.88;4.85;;;;;;;;;;4305398;33;20120;-64
2021/10/04 03:44:14;;;;;;;8.50;5.10;;;;;;;;;;4305381;33;20115;-64
2021/10/04 03:46:39;;;;;;;11.23;4.60;;;;;;;;;;4305395;33;20121;-64
2021/10/04 03:49:05;;;;;;;24.15;4.80;;;;;;;;;;4305366;33;20102;-64
2021/10/04 03:51:31;;;;;;;51.78;6.82;;;;;;;;;;4305480;33;20118;-63
2021/10/04 03:53:57;;;;;;;8.20;3.75;;;;;;;;;;4305326;33;20389;-64
2021/10/04 03:56:23;;;;;;;5.60;3.55;;;;;;;;;;4291711;33;20095;-64
2021/10/04 03:58:49;;;;;;;8.85;3.70;;;;;;;;;;4291769;33;20111;-65
2021/10/04 04:01:15;;;;;;;10.90;3.90;;;;;;;;;;4305315;33;20208;-64
2021/10/04 04:03:41;;;;;;;10.32;4.10;;;;;;;;;;4305246;33;20546;-64
2021/10/04 04:06:06;;;;;;;14.25;4.37;;;;;;;;;;4305231;33;20119;-64
2021/10/04 04:08:34;;;;;;;12.50;3.95;;;;;;;;;;4305179;33;20203;-65
2021/10/04 04:11:03;;;;;;;6.37;2.90;;;;;;;;;;4305125;33;20091;-65
2021/10/04 04:13:29;;;;;;;6.70;2.60;;;;;;;;;;4305443;33;20100;-64
2021/10/04 04:15:55;;;;;;;2.85;2.03;;;;;;;;;;4304756;33;20185;-64
2021/10/04 04:18:21;;;;;;;3.53;2.10;;;;;;;;;;4304958;33;20098;-64
2021/10/04 04:20:46;;;;;;;6.05;2.47;;;;;;;;;;4304918;33;20522;-65
2021/10/04 04:23:12;;;;;;;4.22;1.90;;;;;;;;;;4292053;33;20127;-66
2021/10/04 04:25:38;;;;;;;3.12;2.20;;;;;;;;;;4305077;33;20210;-65
2021/10/04 04:28:04;;;;;;;3.28;2.25;;;;;;;;;;4305069;33;20142;-65
2021/10/04 04:30:30;;;;;;;6.72;3.25;;;;;;;;;;4291677;33;20116;-65
2021/10/04 04:32:56;;;;;;;5.62;3.17;;;;;;;;;;4291533;33;20134;-65
2021/10/04 04:35:22;;;;;;;4.80;3.35;;;;;;;;;;4304880;33;20131;-66
2021/10/04 04:37:48;;;;;;;3.83;3.30;;;;;;;;;;4304917;33;20206;-65
2021/10/04 04:40:15;;;;;;;5.47;2.80;;;;;;;;;;4304991;33;20100;-65
2021/10/04 04:42:44;;;;;;;4.45;3.10;;;;;;;;;;4304697;33;20104;-65
2021/10/04 04:45:11;;;;;;;4.55;2.90;;;;;;;;;;4291612;33;20103;-65
2021/10/04 04:47:37;;;;;;;3.28;2.30;;;;;;;;;;4291695;33;20570;-65
2021/10/04 04:50:04;;;;;;;4.35;2.60;;;;;;;;;;4304877;33;20095;-65
2021/10/04 04:52:30;;;;;;;3.08;2.40;;;;;;;;;;4304873;33;20477;-65
2021/10/04 04:54:56;;;;;;;6.25;2.12;;;;;;;;;;4304690;33;20131;-66
2021/10/04 04:57:22;;;;;;;3.45;2.30;;;;;;;;;;4291204;33;20478;-65
2021/10/04 04:59:48;;;;;;;7.10;2.50;;;;;;;;;;4304798;33;20123;-65
2021/10/04 05:02:14;;;;;;;3.30;2.45;;;;;;;;;;4304530;33;20145;-67
2021/10/04 05:04:40;;;;;;;6.15;2.78;;;;;;;;;;4291240;33;20088;-65
2021/10/04 05:07:06;;;;;;;6.03;2.53;;;;;;;;;;4304836;33;20117;-65
2021/10/04 05:09:32;;;;;;;4.97;2.80;;;;;;;;;;4304680;33;20228;-65
2021/10/04 05:11:57;;;;;;;3.45;1.95;;;;;;;;;;4304547;33;20135;-65
2021/10/04 05:14:23;;;;;;;5.97;2.70;;;;;;;;;;4304608;33;20614;-65
2021/10/04 05:16:50;;;;;;;4.62;2.50;;;;;;;;;;4290981;33;20560;-65
2021/10/04 05:19:16;;;;;;;3.55;2.12;;;;;;;;;;4304673;33;20266;-65
2021/10/04 05:21:41;;;;;;;7.00;4.20;;;;;;;;;;4304944;33;20115;-65
2021/10/04 05:24:08;;;;;;;4.70;2.58;;;;;;;;;;4291407;33;20117;-65
2021/10/04 05:26:33;;;;;;;4.00;2.58;;;;;;;;;;4304549;33;20134;-65
2021/10/04 05:28:59;;;;;;;3.45;2.20;;;;;;;;;;4291398;33;20115;-65
2021/10/04 05:31:25;;;;;;;6.15;3.35;;;;;;;;;;4291402;33;20223;-65
2021/10/04 05:33:51;;;;;;;5.95;3.60;;;;;;;;;;4304461;33;20126;-65
2021/10/04 05:36:17;;;;;;;6.75;3.28;;;;;;;;;;4304592;33;20201;-64
2021/10/04 05:38:43;;;;;;;6.32;3.42;;;;;;;;;;4304401;33;20119;-64
2021/10/04 05:41:12;;;;;;;2.60;1.42;;;;;;;;;;4304687;33;20143;-64
2021/10/04 05:43:38;;;;;;;3.97;2.50;;;;;;;;;;4304708;33;20143;-64
2021/10/04 05:46:04;;;;;;;3.55;2.60;;;;;;;;;;4304295;33;20114;-64
2021/10/04 05:48:30;;;;;;;6.37;2.65;;;;;;;;;;4290837;33;20522;-64
2021/10/04 05:50:55;;;;;;;2.08;1.55;;;;;;;;;;4304231;33;20112;-64
2021/10/04 05:53:21;;;;;;;4.40;2.40;;;;;;;;;;4290964;33;20119;-64
2021/10/04 05:55:47;;;;;;;2.87;2.20;;;;;;;;;;4289871;33;20139;-64
2021/10/04 05:58:13;;;;;;;2.92;1.87;;;;;;;;;;4304711;33;20317;-64
2021/10/04 06:00:39;;;;;;;5.35;1.90;;;;;;;;;;4304285;33;20100;-65
2021/10/04 06:03:05;;;;;;;1.77;1.37;;;;;;;;;;4304292;33;20105;-64
2021/10/04 06:05:32;;;;;;;1.70;1.40;;;;;;;;;;4290938;33;20163;-64
2021/10/04 06:07:58;;;;;;;2.85;2.25;;;;;;;;;;4304460;33;20483;-64
2021/10/04 06:10:24;;;;;;;3.40;2.25;;;;;;;;;;4304218;33;20104;-64
2021/10/04 06:12:51;;;;;;;4.20;1.75;;;;;;;;;;4290809;33;20095;-64
2021/10/04 06:15:17;;;;;;;5.18;2.45;;;;;;;;;;4290922;33;20522;-64
2021/10/04 06:17:43;;;;;;;5.28;2.35;;;;;;;;;;4290532;33;20123;-64
2021/10/04 06:20:09;;;;;;;2.97;1.95;;;;;;;;;;4304080;33;20522;-64
2021/10/04 06:22:36;;;;;;;3.55;2.60;;;;;;;;;;4304028;33;20175;-64
2021/10/04 06:25:03;;;;;;;2.83;2.03;;;;;;;;;;4303903;33;20240;-65
2021/10/04 06:27:29;;;;;;;2.67;2.08;;;;;;;;;;4303970;33;20114;-66
2021/10/04 06:29:55;;;;;;;1.92;1.73;;;;;;;;;;4290725;33;20124;-65
2021/10/04 06:32:21;;;;;;;2.58;1.60;;;;;;;;;;4303947;33;20134;-66
2021/10/04 06:34:47;;;;;;;3.28;2.25;;;;;;;;;;4302325;33;20139;-66
2021/10/04 06:37:13;;;;;;;6.35;2.60;;;;;;;;;;4304045;33;20171;-66
2021/10/04 06:39:39;;;;;;;5.65;3.10;;;;;;;;;;4303776;33;20207;-66
2021/10/04 06:42:04;;;;;;;2.87;2.20;;;;;;;;;;4303719;33;20114;-66
2021/10/04 06:44:30;;;;;;;3.58;1.80;;;;;;;;;;4304047;33;20127;-66
2021/10/04 06:46:56;;;;;;;8.10;3.60;;;;;;;;;;4290446;33;20540;-66
2021/10/04 06:49:22;;;;;;;2.37;1.70;;;;;;;;;;4304144;33;20139;-66
2021/10/04 06:51:48;;;;;;;2.37;1.55;;;;;;;;;;4304101;33;20182;-65
2021/10/04 06:54:14;;;;;;;2.70;1.52;;;;;;;;;;4303767;33;20100;-65
2021/10/04 06:56:40;;;;;;;1.65;1.40;;;;;;;;;;4289846;33;20191;-66
2021/10/04 06:59:06;;;;;;;2.55;1.10;;;;;;;;;;4303947;33;20118;-65
2021/10/04 07:01:34;;;;;;;2.15;1.67;;;;;;;;;;4302315;33;20266;-66
2021/10/04 07:04:02;;;;;;;3.30;1.80;;;;;;;;;;4303656;33;20092;-66
2021/10/04 07:06:28;;;;;;;1.83;1.62;;;;;;;;;;4303368;33;20125;-66
2021/10/04 07:08:54;;;;;;;2.12;1.87;;;;;;;;;;4290147;33;20127;-66
2021/10/04 07:11:20;;;;;;;2.05;1.77;;;;;;;;;;4303836;33;20123;-66
2021/10/04 07:13:48;;;;;;;1.92;1.62;;;;;;;;;;4303411;33;20677;-65
2021/10/04 07:16:18;;;;;;;7.00;1.77;;;;;;;;;;4303299;33;20111;-66
2021/10/04 07:18:44;;;;;;;2.08;1.52;;;;;;;;;;4303409;33;20552;-66
2021/10/04 07:21:10;;;;;;;5.80;1.90;;;;;;;;;;4303504;33;20107;-65
2021/10/04 07:23:36;;;;;;;2.37;1.42;;;;;;;;;;4303502;33;20503;-66
2021/10/04 07:26:02;;;;;;;2.80;1.80;;;;;;;;;;4303666;33;20515;-65
2021/10/04 07:28:28;;;;;;;1.25;1.15;;;;;;;;;;4303342;33;20154;-66
2021/10/04 07:30:55;;;;;;;1.80;1.70;;;;;;;;;;4303387;33;20111;-66
2021/10/04 07:33:21;;;;;;;3.65;2.10;;;;;;;;;;4303242;33;20123;-66
2021/10/04 07:35:47;;;;;;;1.48;1.25;;;;;;;;;;4303153;33;20203;-66
2021/10/04 07:38:12;;;;;;;2.12;1.87;;;;;;;;;;4303275;33;20099;-66
2021/10/04 07:40:38;;;;;;;6.93;3.72;;;;;;;;;;4303239;33;20099;-65
2021/10/04 07:43:04;;;;;;;8.90;3.70;;;;;;;;;;4289644;33;20525;-65
2021/10/04 07:45:32;;;;;;;13.93;5.25;;;;;;;;;;4303201;33;20186;-65
2021/10/04 07:47:59;;;;;;;8.13;3.83;;;;;;;;;;4289951;33;20115;-66
2021/10/04 07:50:24;;;;;;;7.68;3.83;;;;;;;;;;4302967;33;20114;-66
2021/10/04 07:52:50;;;;;;;4.95;2.35;;;;;;;;;;4303299;33;20111;-65
2021/10/04 07:55:16;;;;;;;7.65;3.83;;;;;;;;;;4289593;33;20227;-66
2021/10/04 07:57:48;;;;;;;5.15;2.50;;;;;;;;;;4303000;33;20140;-66
2021/10/04 08:00:14;;;;;;;1.98;1.52;;;;;;;;;;4303021;33;20101;-66
2021/10/04 08:02:40;;;;;;;1.87;1.37;;;;;;;;;;4289383;33;20513;-66
2021/10/04 08:05:06;;;;;;;3.03;2.12;;;;;;;;;;4303039;33;20103;-66
2021/10/04 08:07:32;;;;;;;2.42;1.20;;;;;;;;;;4303135;33;20591;-66
2021/10/04 08:09:58;;;;;;;9.25;1.62;;;;;;;;;;4289869;33;20194;-66
2021/10/04 08:12:25;;;;;;;4.28;1.45;;;;;;;;;;4289234;33;20123;-66
2021/10/04 08:14:52;;;;;;;2.20;1.30;;;;;;;;;;4302767;33;20091;-65
2021/10/04 08:17:18;;;;;;;15.60;3.78;;;;;;;;;;4302647;33;20229;-66
2021/10/04 08:19:45;;;;;;;4.95;2.50;;;;;;;;;;4304339;33;20110;-65
2021/10/04 08:22:11;;;;;;;2.95;1.80;;;;;;;;;;4305006;33;20530;-66
2021/10/04 08:24:36;;;;;;;1.37;1.20;;;;;;;;;;4305082;33;20118;-66
2021/10/04 08:27:03;;;;;;;2.75;1.80;;;;;;;;;;4291685;33;20131;-65
2021/10/04 08:29:28;;;;;;;4.12;1.62;;;;;;;;;;4291648;33;20117;-66
2021/10/04 08:31:54;;;;;;;4.65;1.30;;;;;;;;;;4305004;33;20131;-66
2021/10/04 08:34:20;;;;;;;3.65;1.35;;;;;;;;;;4305041;33;20440;-66
2021/10/04 08:36:46;;;;;;;1.50;1.20;;;;;;;;;;4304958;33;20486;-66
2021/10/04 08:39:12;;;;;;;5.45;1.23;;;;;;;;;;4304976;33;20091;-66
2021/10/04 08:41:38;;;;;;;1.17;1.08;;;;;;;;;;4305046;33;20646;-66
2021/10/04 08:44:07;;;;;;;1.70;1.37;;;;;;;;;;4304838;33;20508;-66
2021/10/04 08:46:38;;;;;;;4.78;1.20;;;;;;;;;;4291815;33;20095;-66
2021/10/04 08:49:04;;;;;;;6.87;4.47;;;;;;;;;;4291601;33;20123;-66
2021/10/04 08:51:30;;;;;;;1.52;1.12;;;;;;;;;;4291444;33;20190;-66
2021/10/04 08:53:56;;;;;;;3.75;1.40;;;;;;;;;;4291576;33;20088;-66
2021/10/04 08:56:21;;;;;;;1.65;1.10;;;;;;;;;;4291477;33;20183;-66
2021/10/04 08:58:47;;;;;;;1.30;1.20;;;;;;;;;;4291479;33;20545;-66
2021/10/04 09:01:13;;;;;;;1.30;1.20;;;;;;;;;;4304767;33;20127;-67
2021/10/04 09:03:47;;;;;;;2.03;1.30;;;;;;;;;;4291407;33;20126;-66
2021/10/04 09:06:38;;;;;;;1.20;1.08;;;;;;;;;;4304650;33;20566;-66
2021/10/04 09:09:12;;;;;;;4.85;1.20;;;;;;;;;;4304678;33;20191;-66
2021/10/04 09:11:40;;;;;;;3.28;1.30;;;;;;;;;;4304580;33;20103;-67
2021/10/04 09:14:16;;;;;;;2.17;1.12;;;;;;;;;;4304601;33;20130;-66
2021/10/04 09:16:52;;;;;;;2.10;1.10;;;;;;;;;;4304395;33;20137;-67
2021/10/04 09:19:29;;;;;;;1.23;1.20;;;;;;;;;;4291342;33;20135;-67
2021/10/04 09:22:23;;;;;;;1.02;1.00;;;;;;;;;;4304478;33;20103;-66
2021/10/04 09:24:58;;;;;;;3.00;1.17;;;;;;;;;;4304588;33;20503;-67
2021/10/04 09:27:34;;;;;;;1.30;1.20;;;;;;;;;;4304576;33;20133;-68
2021/10/04 09:30:11;;;;;;;1.27;1.17;;;;;;;;;;4291027;33;20177;-68
2021/10/04 09:32:41;;;;;;;4.80;1.17;;;;;;;;;;4304425;33;20518;-68
2021/10/04 09:35:23;;;;;;;3.85;1.00;;;;;;;;;;4291014;33;20090;-68
2021/10/04 09:37:52;;;;;;;1.45;1.25;;;;;;;;;;4304327;33;20546;-68
2021/10/04 09:40:38;;;;;;;2.75;1.30;;;;;;;;;;4290992;33;20118;-67
2021/10/04 09:43:30;;;;;;;0.80;0.80;;;;;;;;;;4304648;33;20111;-72
2021/10/04 09:46:08;;;;;;;2.95;1.20;;;;;;;;;;4301392;33;20115;-70
2021/10/04 09:48:34;;;;;;;1.20;1.10;;;;;;;;;;4304395;33;20119;-71
2021/10/04 09:51:17;;;;;;;1.27;0.95;;;;;;;;;;4304232;33;20115;-71
2021/10/04 09:54:08;;;;;;;2.45;1.15;;;;;;;;;;4279289;33;20099;-71
2021/10/04 09:56:34;;;;;;;1.05;1.05;;;;;;;;;;4304185;33;20154;-70
2021/10/04 09:59:00;;;;;;;1.20;1.10;;;;;;;;;;4304226;33;20164;-72
2021/10/04 10:01:26;;;;;;;1.85;1.08;;;;;;;;;;4298485;33;20121;-72
2021/10/04 10:03:52;;;;;;;2.15;1.30;;;;;;;;;;4304152;33;20099;-72
2021/10/04 10:06:18;;;;;;;1.10;1.10;;;;;;;;;;4290814;33;20186;-72
2021/10/04 10:08:44;;;;;;;1.80;1.42;;;;;;;;;;4278930;33;20397;-69
2021/10/04 10:11:17;;;;;;;4.75;1.83;;;;;;;;;;4304012;33;20173;-73
2021/10/04 10:13:43;;;;;;;2.60;1.25;;;;;;;;;;4291714;33;20171;-69
2021/10/04 10:16:42;;;;;;;4.47;1.27;;;;;;;;;;4303742;33;20299;-70
2021/10/04 10:19:11;;;;;;;5.32;1.40;;;;;;;;;;4251850;33;20112;-72
2021/10/04 10:21:37;;;;;;;1.55;1.33;;;;;;;;;;4279185;33;20111;-71
2021/10/04 10:24:07;;;;;;;1.87;1.20;;;;;;;;;;4304313;33;20296;-71
2021/10/04 10:26:48;;;;;;;1.60;1.20;;;;;;;;;;4290869;33;20118;-72
2021/10/04 10:29:17;;;;;;;1.85;1.35;;;;;;;;;;4304200;33;20557;-71
2021/10/04 10:31:51;;;;;;;2.62;1.42;;;;;;;;;;4303879;33;20115;-71
2021/10/04 10:34:30;;;;;;;2.40;1.42;;;;;;;;;;4304208;33;20171;-70
2021/10/04 10:37:11;;;;;;;3.55;1.20;;;;;;;;;;4304019;33;20099;-71
2021/10/04 10:39:43;;;;;;;5.43;1.60;;;;;;;;;;4290751;33;20104;-70
2021/10/04 10:42:09;;;;;;;12.48;1.90;;;;;;;;;;4303583;33;20460;-71
2021/10/04 10:44:38;;;;;;;3.50;1.70;;;;;;;;;;4303845;33;20126;-72
2021/10/04 10:47:04;;;;;;;9.45;1.60;;;;;;;;;;4278753;33;20127;-70
2021/10/04 10:49:58;;;;;;;7.70;1.50;;;;;;;;;;4303871;33;20498;-70
2021/10/04 10:52:28;;;;;;;3.08;1.50;;;;;;;;;;4303891;33;20602;-75
2021/10/04 10:54:55;;;;;;;1.67;1.48;;;;;;;;;;4303659;33;20105;-69
2021/10/04 10:57:45;;;;;;;2.87;1.40;;;;;;;;;;4303434;33;20123;-70
2021/10/04 11:00:45;;;;;;;1.60;1.50;;;;;;;;;;4304152;33;20111;-64
2021/10/04 11:03:11;;;;;;;2.05;1.60;;;;;;;;;;4290139;33;20100;-65
2021/10/04 11:05:37;;;;;;;2.22;1.40;;;;;;;;;;4303619;33;20102;-66
2021/10/04 11:08:23;;;;;;;2.78;1.75;;;;;;;;;;4303719;33;20099;-66
2021/10/04 11:10:51;;;;;;;3.50;1.60;;;;;;;;;;4303416;33;20569;-65
2021/10/04 11:13:40;;;;;;;4.50;1.90;;;;;;;;;;4303808;33;20083;-65
2021/10/04 11:16:06;;;;;;;1.90;1.50;;;;;;;;;;4289846;33;20143;-65
2021/10/04 11:18:37;;;;;;;1.80;1.50;;;;;;;;;;4303419;33;20458;-64
2021/10/04 11:21:04;;;;;;;1.85;1.70;;;;;;;;;;4303186;33;20127;-66
2021/10/04 11:23:30;;;;;;;1.67;1.55;;;;;;;;;;4303634;33;20095;-67
2021/10/04 11:25:56;;;;;;;1.83;1.70;;;;;;;;;;4303670;33;20107;-67
2021/10/04 11:28:36;;;;;;;3.50;1.62;;;;;;;;;;4303410;33;20110;-67
2021/10/04 11:31:06;;;;;;;3.83;2.15;;;;;;;;;;4303431;33;20115;-66
2021/10/04 11:33:33;;;;;;;3.37;1.40;;;;;;;;;;4303621;33;20118;-64
2021/10/04 11:36:07;;;;;;;4.37;2.15;;;;;;;;;;4290112;33;20107;-64
2021/10/04 11:38:37;;;;;;;8.10;2.08;;;;;;;;;;4303582;33;20136;-67
2021/10/04 11:41:04;;;;;;;8.02;1.80;;;;;;;;;;4303569;33;20585;-65
2021/10/04 11:43:35;;;;;;;1.67;1.48;;;;;;;;;;4290154;33;20175;-65
2021/10/04 11:46:16;;;;;;;3.05;1.60;;;;;;;;;;4303073;33;20119;-66
2021/10/04 11:48:42;;;;;;;2.50;1.80;;;;;;;;;;4303156;33;20610;-66
2021/10/04 11:51:15;;;;;;;5.10;1.90;;;;;;;;;;4289741;33;20099;-65
2021/10/04 11:53:42;;;;;;;2.70;1.40;;;;;;;;;;4292071;33;20119;-65
2021/10/04 11:56:09;;;;;;;1.92;1.80;;;;;;;;;;4305337;33;20130;-66
2021/10/04 11:58:36;;;;;;;2.05;1.60;;;;;;;;;;4305180;33;20220;-65
2021/10/04 12:01:02;;;;;;;3.50;1.65;;;;;;;;;;4305616;33;20126;-65
2021/10/04 12:03:29;;;;;;;5.97;1.90;;;;;;;;;;4305500;33;20115;-65
2021/10/04 12:05:55;;;;;;;3.15;1.60;;;;;;;;;;4305274;33;20092;-65
2021/10/04 12:08:22;;;;;;;2.08;1.77;;;;;;;;;;4305283;33;20091;-64
2021/10/04 12:11:00;;;;;;;1.77;1.55;;;;;;;;;;4305166;33;20610;-65
2021/10/04 12:13:27;;;;;;;6.55;2.10;;;;;;;;;;4305234;33;20130;-64
2021/10/04 12:15:54;;;;;;;2.42;1.70;;;;;;;;;;4305200;33;20119;-64
2021/10/04 12:18:25;;;;;;;2.10;1.90;;;;;;;;;;4305124;33;20134;-65
2021/10/04 12:20:53;;;;;;;4.12;2.15;;;;;;;;;;4305122;33;20616;-67
2021/10/04 12:23:23;;;;;;;2.87;1.60;;;;;;;;;;4305100;33;20118;-67
2021/10/04 12:25:50;;;;;;;3.78;1.87;;;;;;;;;;4304934;33;20206;-67
2021/10/04 12:28:18;;;;;;;4.47;1.90;;;;;;;;;;4291728;33;20103;-68
2021/10/04 12:30:52;;;;;;;2.30;1.80;;;;;;;;;;4305237;33;20122;-68
2021/10/04 12:33:19;;;;;;;11.15;2.00;;;;;;;;;;4305216;33;20651;-67
2021/10/04 12:35:45;;;;;;;5.70;2.22;;;;;;;;;;4291743;33;20107;-67
2021/10/04 12:38:14;;;;;;;3.22;2.00;;;;;;;;;;4304801;33;20107;-67
2021/10/04 12:40:47;;;;;;;2.97;2.00;;;;;;;;;;4304891;33;20210;-67
2021/10/04 12:43:26;;;;;;;2.87;1.98;;;;;;;;;;4291410;33;20121;-67
2021/10/04 12:46:02;;;;;;;3.12;1.80;;;;;;;;;;4304609;33;20123;-67
2021/10/04 12:48:28;;;;;;;;;;;;;;;;;;4305167;33;20118;-65
2021/10/04 12:51:13;;;;;;;2.80;2.00;;;;;;;;;;4304932;33;19999;-65
2021/10/04 12:53:58;;;;;;;2.75;2.30;;;;;;;;;;4291691;33;20571;-67
2021/10/04 12:56:27;;;;;;;3.47;2.22;;;;;;;;;;4291623;33;20175;-69
2021/10/04 12:59:06;;;;;;;2.50;2.00;;;;;;;;;;4291476;33;20103;-67
2021/10/04 13:01:33;;;;;;;2.20;2.00;;;;;;;;;;4304921;33;20110;-69
2021/10/04 13:04:09;;;;;;;6.22;1.98;;;;;;;;;;4304486;33;20110;-68
2021/10/04 13:06:37;;;;;;;2.78;2.05;;;;;;;;;;4291750;33;20115;-68
2021/10/04 13:09:04;;;;;;;9.52;4.30;;;;;;;;;;4279408;33;20496;-69
2021/10/04 13:11:30;;;;;;;4.75;2.22;;;;;;;;;;4291271;33;20487;-68
2021/10/04 13:13:56;;;;;;;4.47;1.90;;;;;;;;;;4304865;33;20122;-67
2021/10/04 13:16:22;;;;;;;2.85;2.22;;;;;;;;;;4290920;33;20459;-66
2021/10/04 13:18:48;;;;;;;2.75;2.00;;;;;;;;;;4304474;33;20209;-66
2021/10/04 13:21:14;;;;;;;7.65;2.17;;;;;;;;;;4291194;33;20134;-69
2021/10/04 13:23:40;;;;;;;3.85;2.30;;;;;;;;;;4304600;33;20126;-68
2021/10/04 13:26:08;;;;;;;3.28;2.22;;;;;;;;;;4291127;33;20150;-68
2021/10/04 13:28:36;;;;;;;2.58;2.20;;;;;;;;;;4291266;33;20096;-68
2021/10/04 13:31:07;;;;;;;3.12;2.55;;;;;;;;;;4291332;33;20102;-67
2021/10/04 13:33:32;;;;;;;4.93;2.12;;;;;;;;;;4304753;33;20114;-67
2021/10/04 13:35:58;;;;;;;4.95;2.33;;;;;;;;;;4290898;33;20628;-66
2021/10/04 13:38:25;;;;;;;3.80;2.42;;;;;;;;;;4304286;33;20601;-68
2021/10/04 13:40:51;;;;;;;2.90;2.35;;;;;;;;;;4304316;33;20108;-68
2021/10/04 13:43:17;;;;;;;3.83;2.25;;;;;;;;;;4304653;33;20127;-66
2021/10/04 13:45:43;;;;;;;2.92;2.17;;;;;;;;;;4304489;33;20122;-66
2021/10/04 13:48:09;;;;;;;2.60;2.20;;;;;;;;;;4304349;33;20107;-67
2021/10/04 13:50:35;;;;;;;2.92;2.40;;;;;;;;;;4304527;33;20104;-68
2021/10/04 13:53:01;;;;;;;4.82;2.75;;;;;;;;;;4304434;33;20098;-68
2021/10/04 13:55:27;;;;;;;2.30;2.10;;;;;;;;;;4304267;33;20123;-68
2021/10/04 13:57:53;;;;;;;2.55;1.92;;;;;;;;;;4304287;33;20146;-68
2021/10/04 14:00:18;;;;;;;2.65;2.37;;;;;;;;;;4290820;33;20224;-69
2021/10/04 14:02:44;;;;;;;7.28;2.28;;;;;;;;;;4304107;33;20114;-68
2021/10/04 14:05:11;;;;;;;5.47;2.53;;;;;;;;;;4304086;33;20590;-67
2021/10/04 14:07:36;;;;;;;3.45;2.53;;;;;;;;;;4304131;33;20094;-67
2021/10/04 14:10:04;;;;;;;3.72;2.17;;;;;;;;;;4303770;33;20207;-68
2021/10/04 14:12:30;;;;;;;2.95;2.25;;;;;;;;;;4304207;33;20127;-68
2021/10/04 14:14:55;;;;;;;2.15;1.70;;;;;;;;;;4290628;33;20598;-67
2021/10/04 14:17:22;;;;;;;1.85;1.60;;;;;;;;;;4289413;33;20135;-68
2021/10/04 14:19:48;;;;;;;2.62;1.80;;;;;;;;;;4303817;33;20130;-67
2021/10/04 14:22:15;;;;;;;7.00;1.80;;;;;;;;;;4290751;33;20228;-68
2021/10/04 14:24:41;;;;;;;3.72;2.30;;;;;;;;;;4290562;33;20209;-67
2021/10/04 14:27:07;;;;;;;4.10;2.28;;;;;;;;;;4304309;33;20112;-67
2021/10/04 14:29:33;;;;;;;4.68;2.35;;;;;;;;;;4304188;33;20106;-67
2021/10/04 14:31:59;;;;;;;8.50;2.08;;;;;;;;;;4303685;33;20255;-67
2021/10/04 14:34:25;;;;;;;4.50;2.60;;;;;;;;;;4303948;33;20138;-66
2021/10/04 14:36:51;;;;;;;5.40;2.42;;;;;;;;;;4303792;33;20142;-67
2021/10/04 14:39:17;;;;;;;6.70;2.70;;;;;;;;;;4303643;33;20556;-67
2021/10/04 14:41:43;;;;;;;4.55;2.62;;;;;;;;;;4290234;33;20474;-67
2021/10/04 14:44:09;;;;;;;6.78;3.67;;;;;;;;;;4303794;33;20119;-69
2021/10/04 14:46:36;;;;;;;9.90;3.78;;;;;;;;;;4303810;33;20195;-68
2021/10/04 14:49:02;;;;;;;10.07;4.53;;;;;;;;;;4290260;33;20237;-67
2021/10/04 14:51:28;;;;;;;7.87;3.45;;;;;;;;;;4303946;33;20620;-68
2021/10/04 14:53:54;;;;;;;18.10;5.07;;;;;;;;;;4303615;33;20127;-67
2021/10/04 14:56:25;;;;;;;12.65;4.80;;;;;;;;;;4290268;33;20130;-68
2021/10/04 14:58:53;;;;;;;14.93;5.60;;;;;;;;;;4303642;33;20088;-66
2021/10/04 15:01:19;;;;;;;5.55;2.45;;;;;;;;;;4303915;33;20130;-67
2021/10/04 15:03:44;;;;;;;12.15;4.60;;;;;;;;;;4303607;33;20225;-66